Terminal Aerodrome Forecast
Issued by NWS

Home | Current Version | Previous Version | Text Only | Print | Product List | Glossary On
Versions: 1 2 3 4 5 6 7 8 9 10 11 12 13 14 15 16 17 18 19 20 21 22 23 24 25
000
FTUS41 KOKX 301700
TAFGON
TAF
KGON 301736Z 3018/3118 18009KT P6SM FEW025 SCT040
     FM310000 20005KT P6SM SCT015 SCT040
     FM310600 21005KT 3SM BR BKN010
     FM311500 21009KT P6SM FEW024 BKN040=

USA.gov is the U.S. government's official web portal to all federal, state and local government web resources and services.